Time;durP1;ratioP1;P1;durP2;ratioP2;P2;SDS_P1;SDS_P2;PMS_P1;PMS_P2;Temp;Humidity;BMP_temperature;BMP_pressure;BME280_temperature;BME280_humidity;BME280_pressure;Samples;Min_cycle;Max_cycle;Signal;HPM_P1;HPM_P2
2022/01/14 00:01:16;;;;;;;51.88;19.70;;;4.00;90.40;;;;;;5030360;28;20051;-74
2022/01/14 00:03:42;;;;;;;54.60;19.70;;;4.10;90.30;;;;;;5019458;28;20036;-74
2022/01/14 00:06:08;;;;;;;48.60;19.30;;;4.10;90.30;;;;;;5033957;28;20340;-74
2022/01/14 00:08:35;;;;;;;55.70;19.27;;;4.10;90.30;;;;;;5030726;28;20051;-74
2022/01/14 00:11:03;;;;;;;53.53;19.50;;;4.10;90.40;;;;;;5028265;28;20045;-74
2022/01/14 00:16:13;;;;;;;53.75;20.52;;;4.10;90.30;;;;;;5058250;28;20097;-74
2022/01/14 00:18:39;;;;;;;78.15;23.30;;;4.10;90.20;;;;;;5051591;28;20037;-74
2022/01/14 00:21:05;;;;;;;52.17;20.00;;;4.10;90.30;;;;;;5049321;28;20055;-74
2022/01/14 00:23:35;;;;;;;69.70;20.90;;;4.10;90.30;;;;;;5061171;28;20472;-74
2022/01/14 00:34:24;;;;;;;49.60;17.77;;;4.10;90.20;;;;;;5042027;28;20048;-74
2022/01/14 00:36:50;;;;;;;43.77;17.37;;;4.10;90.30;;;;;;5067297;28;20511;-74
2022/01/14 00:39:15;;;;;;;50.00;18.63;;;4.10;90.30;;;;;;5033492;28;20048;-74
2022/01/14 00:41:43;;;;;;;54.33;18.63;;;4.10;90.30;;;;;;5064827;28;20075;-74
2022/01/14 00:44:12;;;;;;;55.35;18.77;;;4.10;90.20;;;;;;5015375;28;20056;-74
2022/01/14 00:46:39;;;;;;;58.78;19.25;;;4.10;90.30;;;;;;5055953;28;20116;-74
2022/01/14 00:49:05;;;;;;;50.50;17.83;;;4.20;90.40;;;;;;5046136;28;20041;-74
2022/01/14 00:51:30;;;;;;;47.03;17.17;;;4.20;90.30;;;;;;5050400;28;20048;-74
2022/01/14 00:53:56;;;;;;;52.93;18.07;;;4.30;90.30;;;;;;5035680;28;20075;-75
2022/01/14 01:01:37;;;;;;;58.33;20.60;;;4.40;90.40;;;;;;5062218;28;20086;-75
2022/01/14 01:04:03;;;;;;;51.80;18.15;;;4.40;90.40;;;;;;5067518;28;20530;-75
2022/01/14 01:06:29;;;;;;;59.50;18.60;;;4.40;90.40;;;;;;5030565;28;20033;-74
2022/01/14 01:08:56;;;;;;;50.13;17.97;;;4.40;90.40;;;;;;5015512;28;20048;-74
2022/01/14 01:11:27;;;;;;;52.22;18.48;;;4.40;90.40;;;;;;5052792;28;20300;-74
2022/01/14 01:14:11;;;;;;;49.30;17.90;;;4.50;90.40;;;;;;5062582;28;20122;-74
2022/01/14 01:16:37;;;;;;;47.63;16.80;;;4.50;90.50;;;;;;5033461;28;20041;-74
2022/01/14 01:19:03;;;;;;;52.07;18.23;;;4.50;90.40;;;;;;5029177;28;20032;-74
2022/01/14 01:21:28;;;;;;;58.63;19.27;;;4.50;90.40;;;;;;5043980;28;20048;-74
2022/01/14 01:23:54;;;;;;;45.97;17.43;;;4.60;90.40;;;;;;5020991;28;20571;-74
2022/01/14 01:26:28;;;;;;;53.93;19.03;;;4.60;90.40;;;;;;5029010;28;20370;-74
2022/01/14 01:31:35;;;;;;;61.97;19.83;;;4.70;90.50;;;;;;5039761;28;20453;-74
2022/01/14 01:34:08;;;;;;;53.47;18.95;;;4.70;90.60;;;;;;5047300;28;20588;-74
2022/01/14 01:36:35;;;;;;;55.13;19.92;;;4.80;90.50;;;;;;5035145;28;20805;-74
2022/01/14 01:39:03;;;;;;;48.70;20.02;;;4.80;90.60;;;;;;5025868;28;20072;-74
2022/01/14 01:41:30;;;;;;;52.75;19.13;;;4.90;90.50;;;;;;5049719;28;20110;-74
2022/01/14 01:43:55;;;;;;;47.40;19.85;;;5.00;90.60;;;;;;5056367;28;20326;-75
2022/01/14 01:46:23;;;;;;;50.33;18.87;;;5.00;90.60;;;;;;5028615;28;20041;-75
2022/01/14 01:48:53;;;;;;;49.30;18.73;;;5.00;90.50;;;;;;5057402;28;20076;-75
2022/01/14 01:51:20;;;;;;;44.75;19.35;;;5.00;90.60;;;;;;5035792;28;20493;-74
2022/01/14 01:53:47;;;;;;;56.63;19.40;;;5.10;90.60;;;;;;5036087;28;20091;-74
2022/01/14 01:56:14;;;;;;;50.00;19.25;;;5.10;90.60;;;;;;5041675;28;20043;-74
2022/01/14 01:58:40;;;;;;;48.15;18.55;;;5.10;90.60;;;;;;5024363;28;20029;-74
2022/01/14 02:01:07;;;;;;;51.95;18.48;;;5.10;90.60;;;;;;5036840;28;20117;-74
2022/01/14 02:03:34;;;;;;;42.95;16.92;;;5.10;90.60;;;;;;5052428;28;20443;-74
2022/01/14 02:06:01;;;;;;;51.22;18.85;;;5.20;90.60;;;;;;5042511;28;20072;-75
2022/01/14 02:08:27;;;;;;;58.45;18.80;;;5.20;90.60;;;;;;5051484;28;20051;-74
2022/01/14 02:10:53;;;;;;;43.00;18.17;;;5.20;90.60;;;;;;5047265;28;20097;-75
2022/01/14 02:13:19;;;;;;;49.27;18.13;;;5.20;90.50;;;;;;5020387;28;20067;-74
2022/01/14 02:16:33;;;;;;;50.20;18.50;;;5.20;90.60;;;;;;5047720;28;20491;-74
2022/01/14 02:18:40;;;;;;;43.22;17.27;;;5.20;90.60;;;;;;5040015;28;20434;-74
2022/01/14 02:26:54;;;;;;;40.00;16.90;;;5.20;90.60;;;;;;5019636;28;20052;-74
2022/01/14 02:29:23;;;;;;;49.92;18.38;;;5.30;90.50;;;;;;5021049;28;20059;-74
2022/01/14 02:31:49;;;;;;;41.92;17.95;;;5.30;90.60;;;;;;5053001;28;20044;-74
2022/01/14 02:34:15;;;;;;;42.92;18.10;;;5.30;90.60;;;;;;5022253;28;20130;-74
2022/01/14 02:36:46;;;;;;;40.22;18.73;;;5.30;90.50;;;;;;5029530;28;20044;-75
2022/01/14 02:39:14;;;;;;;47.38;17.98;;;5.30;90.50;;;;;;5050239;28;20109;-74
2022/01/14 02:41:41;;;;;;;42.67;18.67;;;5.30;90.60;;;;;;5065131;28;20113;-74
2022/01/14 02:44:10;;;;;;;46.67;18.15;;;5.30;90.50;;;;;;5063180;28;20127;-74
2022/01/14 02:46:41;;;;;;;45.83;19.80;;;5.30;90.50;;;;;;5061943;28;20048;-74
2022/01/14 02:49:07;;;;;;;50.08;18.08;;;5.30;90.50;;;;;;5052228;28;20523;-74
2022/01/14 02:51:33;;;;;;;43.53;17.57;;;5.30;90.60;;;;;;5058268;28;20040;-74
2022/01/14 02:54:12;;;;;;;43.17;18.20;;;5.30;90.50;;;;;;5041164;28;20106;-74
2022/01/14 02:56:41;;;;;;;43.08;17.70;;;5.30;90.60;;;;;;5056648;28;20052;-74
2022/01/14 02:59:09;;;;;;;45.75;18.58;;;5.30;90.50;;;;;;5049255;28;20437;-74
2022/01/14 03:01:36;;;;;;;46.25;18.65;;;5.30;90.50;;;;;;5036591;28;20040;-74
2022/01/14 03:04:04;;;;;;;51.78;19.80;;;5.30;90.50;;;;;;5033356;28;20051;-74
2022/01/14 03:06:30;;;;;;;40.03;18.70;;;5.30;90.50;;;;;;5061991;28;20048;-74
2022/01/14 03:08:57;;;;;;;53.83;20.63;;;5.30;90.50;;;;;;5019975;28;20033;-74
2022/01/14 03:11:45;;;;;;;44.25;19.98;;;5.30;90.50;;;;;;5028878;28;20112;-74
2022/01/14 03:14:14;;;;;;;41.38;19.13;;;5.30;90.60;;;;;;5064163;28;20044;-75
2022/01/14 03:16:42;;;;;;;44.42;19.77;;;5.30;90.60;;;;;;5044734;28;20514;-74
2022/01/14 03:19:18;;;;;;;44.45;18.80;;;5.30;90.50;;;;;;5048596;28;20043;-74
2022/01/14 03:21:44;;;;;;;41.85;19.58;;;5.30;90.50;;;;;;5040108;28;20605;-74
2022/01/14 03:25:35;;;;;;;42.23;19.50;;;5.30;90.50;;;;;;5013112;28;20133;-75
2022/01/14 03:27:04;;;;;;;43.90;19.40;;;5.30;90.60;;;;;;5044774;28;20123;-74
2022/01/14 03:29:30;;;;;;;38.92;19.17;;;5.30;90.50;;;;;;5042112;28;20286;-74
2022/01/14 03:31:56;;;;;;;42.95;19.50;;;5.30;90.40;;;;;;5024329;28;20037;-74
2022/01/14 03:34:22;;;;;;;37.57;19.13;;;5.30;90.50;;;;;;5028253;28;20054;-74
2022/01/14 03:36:47;;;;;;;43.13;19.85;;;5.30;90.50;;;;;;5029555;28;20465;-74
2022/01/14 03:39:13;;;;;;;41.63;19.27;;;5.30;90.50;;;;;;5011699;28;20072;-74
2022/01/14 03:41:39;;;;;;;38.00;18.67;;;5.30;90.50;;;;;;5035639;28;20044;-74
2022/01/14 03:44:05;;;;;;;46.03;19.75;;;5.30;90.40;;;;;;5029157;28;20048;-74
2022/01/14 03:46:31;;;;;;;43.47;19.53;;;5.30;90.40;;;;;;5031817;28;20117;-75
2022/01/14 03:48:57;;;;;;;40.63;18.43;;;5.30;90.50;;;;;;5050554;28;20124;-75
2022/01/14 03:51:23;;;;;;;37.73;19.20;;;5.30;90.40;;;;;;5048170;28;20302;-75
2022/01/14 03:53:49;;;;;;;40.78;19.08;;;5.30;90.50;;;;;;5043435;28;20057;-75
2022/01/14 03:56:16;;;;;;;43.65;19.50;;;5.30;90.40;;;;;;5028597;28;20045;-75
2022/01/14 03:58:42;;;;;;;34.95;19.35;;;5.30;90.40;;;;;;5049072;28;20044;-75
2022/01/14 04:01:09;;;;;;;38.03;18.85;;;5.30;90.40;;;;;;5034519;28;20284;-75
2022/01/14 04:03:35;;;;;;;40.30;19.20;;;5.20;90.40;;;;;;5053061;28;20045;-75
2022/01/14 04:06:02;;;;;;;40.47;20.30;;;5.20;90.40;;;;;;5039722;28;20056;-75
2022/01/14 04:08:28;;;;;;;40.38;20.30;;;5.20;90.40;;;;;;5057720;28;20051;-75
2022/01/14 04:10:56;;;;;;;40.93;20.03;;;5.20;90.30;;;;;;5051411;28;20119;-75
2022/01/14 04:13:34;;;;;;;40.08;19.55;;;5.20;90.40;;;;;;5047902;28;20410;-75
2022/01/14 04:16:00;;;;;;;42.78;20.05;;;5.20;90.30;;;;;;5036441;28;20408;-75
2022/01/14 04:18:26;;;;;;;35.55;19.70;;;5.20;90.40;;;;;;5028204;28;20135;-74
2022/01/14 04:20:52;;;;;;;41.37;20.57;;;5.20;90.30;;;;;;5029970;28;20128;-75
2022/01/14 04:23:21;;;;;;;41.70;20.77;;;5.20;90.30;;;;;;5017725;28;20040;-75
2022/01/14 04:25:48;;;;;;;32.88;19.25;;;5.20;90.30;;;;;;5042022;28;20044;-75
2022/01/14 04:28:14;;;;;;;41.75;20.40;;;5.20;90.30;;;;;;5024854;28;20056;-75
2022/01/14 04:30:40;;;;;;;36.72;19.83;;;5.10;90.30;;;;;;5057095;28;20033;-75
2022/01/14 04:33:05;;;;;;;43.93;20.07;;;5.10;90.30;;;;;;5016953;28;20537;-75
2022/01/14 04:35:33;;;;;;;34.97;18.83;;;5.10;90.30;;;;;;5033395;28;20059;-75
2022/01/14 04:37:59;;;;;;;39.15;20.48;;;5.10;90.30;;;;;;5047560;28;20037;-75
2022/01/14 04:40:25;;;;;;;39.87;18.87;;;5.10;90.30;;;;;;5060907;28;20055;-75
2022/01/14 04:42:55;;;;;;;37.10;19.13;;;5.10;90.20;;;;;;5040151;28;20140;-75
2022/01/14 04:48:05;;;;;;;37.30;19.67;;;5.10;90.20;;;;;;5030843;28;20076;-75
2022/01/14 04:50:31;;;;;;;37.38;19.00;;;5.10;90.30;;;;;;5053837;28;20063;-75
2022/01/14 04:52:57;;;;;;;35.20;18.67;;;5.10;90.20;;;;;;5016895;28;20489;-75
2022/01/14 04:55:25;;;;;;;45.17;19.75;;;5.10;90.30;;;;;;5048189;28;20463;-75
2022/01/14 04:57:52;;;;;;;34.20;18.55;;;5.10;90.30;;;;;;5040324;28;20049;-74
2022/01/14 05:00:21;;;;;;;35.42;19.55;;;5.10;90.30;;;;;;5033625;28;20068;-74
2022/01/14 05:02:47;;;;;;;42.55;21.27;;;5.10;90.20;;;;;;5034955;28;20037;-75
2022/01/14 05:05:16;;;;;;;42.42;19.50;;;5.10;90.20;;;;;;5043679;28;20107;-75
2022/01/14 05:07:43;;;;;;;38.88;19.70;;;5.10;90.30;;;;;;5030252;28;20044;-75
2022/01/14 05:10:20;;;;;;;41.92;19.50;;;5.10;90.30;;;;;;5039142;28;20110;-74
2022/01/14 05:12:46;;;;;;;39.60;21.17;;;5.10;90.20;;;;;;5032139;28;20043;-74
2022/01/14 05:15:15;;;;;;;37.37;19.77;;;5.10;90.30;;;;;;5039284;28;20041;-75
2022/01/14 05:17:41;;;;;;;38.92;20.48;;;5.10;90.20;;;;;;5033316;28;20072;-75
2022/01/14 05:20:08;;;;;;;37.05;19.27;;;5.00;90.30;;;;;;5062270;28;20260;-75
2022/01/14 05:22:34;;;;;;;38.60;20.48;;;5.00;90.20;;;;;;5040510;28;20558;-75
2022/01/14 05:24:59;;;;;;;40.20;19.93;;;5.00;90.30;;;;;;5051425;28;20076;-75
2022/01/14 05:27:25;;;;;;;45.73;20.77;;;5.00;90.30;;;;;;5062417;28;20040;-75
2022/01/14 05:29:51;;;;;;;39.43;19.87;;;5.00;90.20;;;;;;5043388;28;20397;-75
2022/01/14 05:32:16;;;;;;;38.60;20.03;;;5.00;90.30;;;;;;5030909;28;20076;-74
2022/01/14 05:34:45;;;;;;;41.07;18.40;;;5.00;90.30;;;;;;5047565;28;20046;-75
2022/01/14 05:37:11;;;;;;;38.97;19.40;;;5.00;90.30;;;;;;5033299;28;20047;-75
2022/01/14 05:39:37;;;;;;;37.33;19.40;;;5.00;90.30;;;;;;5048434;28;20041;-74
2022/01/14 05:42:04;;;;;;;43.17;19.15;;;5.00;90.10;;;;;;5037444;28;20115;-74
2022/01/14 05:44:31;;;;;;;40.45;19.40;;;5.00;90.20;;;;;;5034910;28;20049;-75
2022/01/14 05:46:59;;;;;;;37.70;18.65;;;4.90;90.20;;;;;;5049559;28;20043;-74
2022/01/14 05:49:25;;;;;;;38.13;18.85;;;4.90;90.30;;;;;;5043866;28;20096;-74
2022/01/14 05:51:51;;;;;;;35.38;17.75;;;4.90;90.30;;;;;;5055747;28;20045;-75
2022/01/14 05:54:18;;;;;;;36.38;19.65;;;4.90;90.30;;;;;;5049719;28;20059;-75
2022/01/14 05:56:44;;;;;;;38.70;19.58;;;4.90;90.20;;;;;;5050548;28;20047;-75
2022/01/14 05:59:10;;;;;;;38.33;18.73;;;4.90;90.20;;;;;;5060120;28;20385;-75
2022/01/14 06:01:36;;;;;;;37.90;18.92;;;4.90;90.30;;;;;;5043768;28;20048;-75
2022/01/14 06:04:03;;;;;;;38.57;18.87;;;4.90;90.20;;;;;;5058022;28;20037;-75
2022/01/14 06:06:29;;;;;;;43.22;19.63;;;4.90;90.20;;;;;;5046549;28;20186;-75
2022/01/14 06:08:55;;;;;;;38.47;20.20;;;4.90;90.30;;;;;;5026818;28;20045;-75
2022/01/14 06:11:21;;;;;;;44.80;19.47;;;4.90;90.20;;;;;;5057934;28;20044;-75
2022/01/14 06:13:47;;;;;;;43.30;19.17;;;4.90;90.20;;;;;;5029003;28;20360;-75
2022/01/14 06:16:14;;;;;;;37.90;18.83;;;4.90;90.30;;;;;;5046739;28;20150;-74
2022/01/14 06:18:40;;;;;;;41.70;19.10;;;4.90;90.20;;;;;;5030226;28;20287;-75
2022/01/14 06:21:07;;;;;;;36.75;18.75;;;4.90;90.20;;;;;;5050712;28;20099;-75
2022/01/14 06:23:33;;;;;;;34.80;19.08;;;4.90;90.20;;;;;;5047087;28;20045;-75
2022/01/14 06:25:59;;;;;;;34.38;18.83;;;4.90;90.20;;;;;;5067346;28;20485;-75
2022/01/14 06:28:25;;;;;;;34.42;18.42;;;5.00;90.30;;;;;;5040276;28;20123;-75
2022/01/14 06:30:50;;;;;;;39.60;19.20;;;5.00;90.20;;;;;;5041262;28;20064;-75
2022/01/14 06:33:16;;;;;;;34.53;17.83;;;5.00;90.10;;;;;;5047707;28;20037;-75
2022/01/14 06:35:42;;;;;;;33.85;17.08;;;5.00;90.20;;;;;;5060927;28;20036;-75
2022/01/14 06:38:08;;;;;;;37.13;17.20;;;5.00;90.10;;;;;;5046128;28;20045;-75
2022/01/14 06:40:34;;;;;;;39.72;17.58;;;5.00;90.10;;;;;;5060283;28;20402;-75
2022/01/14 06:43:01;;;;;;;37.43;16.67;;;5.00;90.20;;;;;;5053852;28;20043;-75
2022/01/14 06:45:27;;;;;;;33.88;17.00;;;5.10;90.10;;;;;;5046300;28;20041;-75
2022/01/14 06:47:53;;;;;;;36.50;16.03;;;5.10;90.10;;;;;;5032079;28;20048;-75
2022/01/14 06:50:20;;;;;;;39.87;15.90;;;5.10;90.10;;;;;;5034876;28;20291;-75
2022/01/14 06:52:46;;;;;;;31.40;15.23;;;5.10;90.00;;;;;;5061184;28;20640;-75
2022/01/14 06:55:12;;;;;;;35.90;15.07;;;5.10;90.00;;;;;;5016447;28;20135;-75
2022/01/14 06:57:38;;;;;;;28.55;13.65;;;5.10;90.00;;;;;;5029856;28;20033;-75
2022/01/14 07:00:12;;;;;;;30.03;13.73;;;5.20;90.00;;;;;;5035759;28;20040;-75
2022/01/14 07:02:39;;;;;;;29.92;13.35;;;5.20;89.90;;;;;;5042772;28;20854;-75
2022/01/14 07:05:05;;;;;;;32.83;13.07;;;5.20;89.90;;;;;;5057392;28;20041;-74
2022/01/14 07:07:31;;;;;;;26.52;11.20;;;5.20;89.90;;;;;;5047079;28;20036;-75
2022/01/14 07:09:57;;;;;;;26.47;11.20;;;5.30;89.80;;;;;;5041127;28;20047;-75
2022/01/14 07:12:32;;;;;;;26.42;11.23;;;5.30;89.80;;;;;;5031581;28;20786;-75
2022/01/14 07:14:59;;;;;;;29.55;11.02;;;5.30;89.80;;;;;;5030916;28;20037;-75
2022/01/14 07:17:26;;;;;;;28.17;11.15;;;5.30;89.70;;;;;;5030500;28;20045;-75
2022/01/14 07:19:54;;;;;;;26.75;10.05;;;5.30;89.50;;;;;;5054279;28;20299;-75
2022/01/14 07:22:20;;;;;;;28.75;10.45;;;5.30;89.50;;;;;;5052339;28;20537;-74
2022/01/14 07:24:47;;;;;;;31.33;10.73;;;5.30;89.40;;;;;;5074892;28;20509;-75
2022/01/14 07:27:14;;;;;;;26.55;9.90;;;5.30;89.30;;;;;;5026773;28;20504;-74
2022/01/14 07:29:40;;;;;;;33.78;10.73;;;5.30;89.30;;;;;;5043945;28;20130;-74
2022/01/14 07:32:06;;;;;;;22.05;10.40;;;5.30;89.10;;;;;;5023911;28;20154;-74
2022/01/14 07:34:32;;;;;;;20.80;9.25;;;5.30;89.30;;;;;;5047580;28;20041;-74
2022/01/14 07:36:58;;;;;;;20.03;9.30;;;5.30;89.20;;;;;;5047221;28;20043;-74
2022/01/14 07:39:23;;;;;;;23.67;9.17;;;5.30;89.20;;;;;;5045212;28;20139;-74
2022/01/14 07:41:50;;;;;;;22.23;9.37;;;5.30;89.20;;;;;;5022570;28;20040;-75
2022/01/14 07:44:16;;;;;;;30.95;8.82;;;5.40;89.30;;;;;;5050588;28;20044;-74
2022/01/14 07:46:43;;;;;;;22.47;9.03;;;5.30;89.30;;;;;;5023449;28;20113;-74
2022/01/14 07:49:09;;;;;;;23.02;8.90;;;5.30;89.40;;;;;;5066326;28;20045;-74
2022/01/14 07:51:35;;;;;;;20.77;8.73;;;5.30;89.50;;;;;;5076090;28;20507;-74
2022/01/14 07:54:05;;;;;;;24.88;8.57;;;5.30;89.60;;;;;;5034918;28;20486;-74
2022/01/14 07:56:36;;;;;;;21.42;8.95;;;5.40;89.60;;;;;;5036136;28;20408;-74
2022/01/14 07:59:03;;;;;;;31.65;8.55;;;5.40;89.60;;;;;;5029729;28;20162;-74
2022/01/14 08:01:28;;;;;;;24.65;8.65;;;5.40;89.60;;;;;;5051001;28;20131;-74
2022/01/14 08:03:54;;;;;;;23.47;8.73;;;5.40;89.50;;;;;;5026727;28;20131;-74
2022/01/14 08:06:22;;;;;;;25.90;9.33;;;5.40;89.70;;;;;;5002350;28;20059;-74
2022/01/14 08:08:48;;;;;;;27.42;8.52;;;5.30;89.70;;;;;;5059998;28;20495;-74
2022/01/14 08:11:14;;;;;;;24.23;9.83;;;5.40;89.60;;;;;;5033951;28;20261;-74
2022/01/14 08:13:40;;;;;;;18.77;8.87;;;5.40;89.60;;;;;;5051686;28;20323;-74
2022/01/14 08:16:05;;;;;;;22.63;8.80;;;5.40;89.70;;;;;;5042442;28;20048;-74
2022/01/14 08:18:31;;;;;;;18.27;8.10;;;5.40;89.60;;;;;;5020689;28;20572;-75
2022/01/14 08:20:57;;;;;;;22.63;8.03;;;5.50;89.60;;;;;;5038128;28;20499;-74
2022/01/14 08:23:22;;;;;;;21.97;8.00;;;5.50;89.50;;;;;;5010529;28;20404;-74
2022/01/14 08:25:52;;;;;;;18.70;8.70;;;5.50;89.50;;;;;;5041515;28;20433;-75
2022/01/14 08:28:19;;;;;;;18.38;7.78;;;5.50;89.60;;;;;;5044384;28;20045;-74
2022/01/14 08:30:45;;;;;;;20.33;8.60;;;5.60;89.50;;;;;;5032139;28;20580;-74
2022/01/14 08:33:12;;;;;;;24.77;8.47;;;5.60;89.50;;;;;;5053161;28;20041;-74
2022/01/14 08:35:38;;;;;;;22.73;8.02;;;5.60;89.50;;;;;;5018214;28;20408;-74
2022/01/14 08:38:04;;;;;;;21.73;8.18;;;5.60;89.40;;;;;;5033307;28;20044;-74
2022/01/14 08:40:30;;;;;;;18.07;7.77;;;5.70;89.40;;;;;;5052061;28;20032;-74
2022/01/14 08:42:56;;;;;;;18.75;6.40;;;5.70;89.30;;;;;;5051198;28;20508;-74
2022/01/14 08:45:23;;;;;;;17.17;6.50;;;5.70;89.40;;;;;;5020695;28;20051;-74
2022/01/14 08:47:53;;;;;;;21.77;6.38;;;5.70;89.30;;;;;;5034452;28;20311;-74
2022/01/14 08:50:24;;;;;;;19.73;6.88;;;5.80;89.30;;;;;;5056013;28;20044;-74
2022/01/14 08:52:50;;;;;;;19.23;6.18;;;5.80;89.30;;;;;;5060509;28;20078;-74
2022/01/14 08:55:18;;;;;;;15.32;5.70;;;5.80;89.30;;;;;;5059516;28;20517;-74
2022/01/14 08:57:44;;;;;;;17.48;5.50;;;5.80;89.20;;;;;;5054159;28;20040;-74
2022/01/14 09:00:12;;;;;;;20.77;6.07;;;5.90;89.10;;;;;;5057229;28;20051;-74
2022/01/14 09:02:38;;;;;;;15.05;5.25;;;5.90;89.00;;;;;;5061173;28;20341;-74
2022/01/14 09:05:04;;;;;;;18.70;5.20;;;5.90;89.00;;;;;;5035519;28;20048;-74
2022/01/14 09:07:30;;;;;;;11.75;4.88;;;6.00;88.90;;;;;;5037705;28;20513;-74
2022/01/14 09:09:56;;;;;;;18.37;4.67;;;6.00;88.90;;;;;;5016455;28;20044;-74
2022/01/14 09:12:22;;;;;;;13.05;4.95;;;6.00;89.00;;;;;;5028868;28;20123;-75
2022/01/14 09:14:48;;;;;;;16.40;4.68;;;6.10;88.90;;;;;;5051766;28;20041;-74
2022/01/14 09:17:14;;;;;;;18.90;4.53;;;6.10;88.80;;;;;;5037284;28;20029;-74
2022/01/14 09:19:40;;;;;;;12.83;4.47;;;6.10;88.80;;;;;;5051692;28;20044;-74
2022/01/14 09:22:07;;;;;;;13.38;4.85;;;6.20;88.70;;;;;;5069891;28;20438;-74
2022/01/14 09:24:34;;;;;;;14.98;4.32;;;6.20;88.80;;;;;;5054566;28;20445;-74
2022/01/14 09:27:00;;;;;;;13.70;4.22;;;6.20;88.70;;;;;;5035960;28;20059;-74
2022/01/14 09:29:26;;;;;;;15.73;4.22;;;6.30;88.50;;;;;;5051776;28;20467;-74
2022/01/14 09:31:52;;;;;;;14.70;4.07;;;6.30;88.40;;;;;;5069105;28;20079;-74
2022/01/14 09:34:17;;;;;;;20.03;4.20;;;6.40;88.70;;;;;;5037322;28;20128;-74
2022/01/14 09:36:43;;;;;;;18.77;4.03;;;6.40;88.50;;;;;;5045838;28;20535;-74
2022/01/14 09:39:09;;;;;;;15.67;4.20;;;6.40;88.60;;;;;;5019990;28;20048;-74
2022/01/14 09:41:35;;;;;;;17.10;3.73;;;6.50;88.70;;;;;;5045118;28;20492;-74
2022/01/14 09:44:02;;;;;;;11.40;3.77;;;6.50;88.70;;;;;;5039885;28;20447;-74
2022/01/14 09:46:28;;;;;;;12.00;3.83;;;6.50;88.40;;;;;;5045613;28;20527;-74
2022/01/14 09:48:53;;;;;;;19.80;4.10;;;6.50;88.30;;;;;;5034877;28;20044;-74
2022/01/14 09:51:19;;;;;;;13.90;3.77;;;6.60;88.50;;;;;;5022138;28;20037;-74
2022/01/14 09:53:45;;;;;;;14.07;3.67;;;6.60;88.40;;;;;;5055413;28;20056;-74
2022/01/14 09:56:17;;;;;;;15.35;4.28;;;6.60;88.30;;;;;;5046227;28;20037;-74
2022/01/14 09:58:47;;;;;;;12.43;3.22;;;6.60;88.20;;;;;;5058550;28;20574;-74
2022/01/14 10:01:18;;;;;;;15.32;3.50;;;6.60;88.20;;;;;;5062173;28;20163;-74
2022/01/14 10:03:47;;;;;;;12.75;3.00;;;6.70;88.00;;;;;;5050544;28;20738;-74
2022/01/14 10:06:32;;;;;;;12.77;3.70;;;6.70;87.70;;;;;;5034633;28;20036;-74
2022/01/14 10:09:09;;;;;;;13.88;3.63;;;6.70;87.60;;;;;;5050414;28;20441;-74
2022/01/14 10:11:42;;;;;;;15.15;3.53;;;6.70;87.80;;;;;;5045204;28;20055;-74
2022/01/14 10:14:11;;;;;;;12.50;2.88;;;6.70;87.20;;;;;;5062912;28;20044;-74
2022/01/14 10:16:41;;;;;;;16.40;3.58;;;6.70;87.20;;;;;;5076650;28;20515;-74
2022/01/14 10:19:27;;;;;;;16.42;3.25;;;6.70;86.30;;;;;;5051392;28;20048;-74
2022/01/14 10:21:53;;;;;;;15.38;3.00;;;6.70;86.70;;;;;;5076180;28;20040;-75
2022/01/14 10:24:22;;;;;;;16.55;3.38;;;6.70;86.30;;;;;;5053343;28;20048;-74
2022/01/14 10:26:48;;;;;;;13.88;3.65;;;6.80;86.60;;;;;;5040903;28;20741;-74
2022/01/14 10:29:14;;;;;;;17.65;3.10;;;6.80;86.00;;;;;;5055554;28;20064;-75
2022/01/14 10:31:42;;;;;;;15.60;3.60;;;6.80;86.30;;;;;;5044304;28;20041;-74
2022/01/14 10:34:16;;;;;;;14.23;3.45;;;6.80;86.10;;;;;;5062804;28;20036;-75
2022/01/14 10:36:47;;;;;;;13.43;3.58;;;6.80;86.50;;;;;;5053394;28;20041;-74
2022/01/14 10:39:23;;;;;;;18.98;3.45;;;6.90;86.30;;;;;;5056400;28;20375;-75
2022/01/14 10:41:50;;;;;;;16.50;3.40;;;6.90;86.80;;;;;;5051423;28;20094;-75
2022/01/14 10:44:32;;;;;;;17.73;3.20;;;6.90;86.50;;;;;;5039500;28;20059;-74
2022/01/14 10:47:12;;;;;;;15.30;3.10;;;7.00;86.50;;;;;;5061692;28;20056;-74
2022/01/14 10:49:39;;;;;;;13.20;3.22;;;6.90;86.10;;;;;;5031873;28;20099;-74
2022/01/14 10:52:21;;;;;;;17.23;2.95;;;6.90;85.00;;;;;;5057141;28;20459;-74
2022/01/14 10:54:49;;;;;;;13.02;3.58;;;6.90;85.10;;;;;;5033756;28;20053;-74
2022/01/14 10:57:20;;;;;;;14.02;3.10;;;6.90;85.20;;;;;;5036370;28;20501;-74
2022/01/14 10:59:47;;;;;;;10.82;3.90;;;6.90;85.70;;;;;;5050252;28;20119;-74
2022/01/14 11:02:39;;;;;;;14.90;3.65;;;6.90;85.90;;;;;;5047317;28;20155;-74
2022/01/14 11:05:15;;;;;;;15.63;3.40;;;6.90;86.10;;;;;;5042056;28;20048;-74
2022/01/14 11:07:41;;;;;;;;;;;6.90;86.00;;;;;;5052009;28;20072;-74
2022/01/14 11:10:27;;;;;;;21.65;3.63;;;6.90;85.80;;;;;;5049905;28;20385;-74
2022/01/14 11:12:57;;;;;;;16.42;3.55;;;6.90;85.90;;;;;;5055613;28;20346;-74
2022/01/14 11:15:25;;;;;;;10.50;2.65;;;6.90;85.70;;;;;;5032831;28;20041;-74
2022/01/14 11:17:54;;;;;;;12.85;3.08;;;6.90;85.30;;;;;;5053244;28;20033;-74
2022/01/14 11:20:36;;;;;;;15.75;3.38;;;6.90;85.20;;;;;;5074455;28;20640;-74
2022/01/14 11:23:14;;;;;;;17.38;3.30;;;6.90;85.70;;;;;;5036070;28;20501;-74
2022/01/14 11:25:48;;;;;;;16.35;4.35;;;6.90;85.70;;;;;;5050870;28;20039;-74
2022/01/14 11:28:18;;;;;;;17.33;4.25;;;6.90;85.50;;;;;;5054670;28;20049;-74
2022/01/14 11:30:44;;;;;;;11.77;3.40;;;6.90;85.40;;;;;;5058216;28;20057;-74
2022/01/14 11:33:12;;;;;;;15.57;3.77;;;6.90;85.90;;;;;;5041732;28;20047;-74
2022/01/14 11:35:39;;;;;;;16.05;3.83;;;6.90;85.90;;;;;;5041033;28;20435;-74
2022/01/14 11:38:35;;;;;;;16.48;3.97;;;6.90;86.00;;;;;;5038369;28;20045;-75
2022/01/14 11:41:01;;;;;;;19.42;3.50;;;6.90;86.00;;;;;;5061605;28;20117;-74
2022/01/14 11:43:52;;;;;;;12.07;3.50;;;6.80;85.20;;;;;;5038307;28;20556;-74
2022/01/14 11:46:30;;;;;;;14.13;4.25;;;6.80;85.20;;;;;;5059073;28;20059;-74
2022/01/14 11:48:56;;;;;;;15.48;3.97;;;6.80;85.40;;;;;;5037736;28;20492;-74
2022/01/14 11:51:22;;;;;;;16.00;4.07;;;6.90;85.90;;;;;;5073687;28;20102;-74
2022/01/14 11:54:03;;;;;;;14.27;4.37;;;6.90;85.80;;;;;;5034554;28;20497;-74
2022/01/14 11:56:32;;;;;;;13.27;3.78;;;6.90;86.10;;;;;;5034875;28;20468;-74
2022/01/14 11:59:22;;;;;;;16.45;3.72;;;6.90;86.10;;;;;;5034536;28;20574;-74
2022/01/14 12:01:53;;;;;;;21.63;4.38;;;6.90;86.30;;;;;;5051665;28;20056;-75
2022/01/14 12:04:19;;;;;;;14.98;4.05;;;6.90;86.30;;;;;;5049197;28;20048;-75
2022/01/14 12:06:51;;;;;;;18.98;4.97;;;6.90;85.70;;;;;;5033388;28;20048;-75
2022/01/14 12:09:18;;;;;;;19.35;4.88;;;6.90;86.10;;;;;;5033148;28;20079;-75
2022/01/14 12:11:44;;;;;;;20.08;4.85;;;6.90;86.00;;;;;;5021736;28;20060;-74
2022/01/14 12:14:12;;;;;;;21.93;4.80;;;7.00;86.30;;;;;;5064572;28;20075;-74
2022/01/14 12:16:48;;;;;;;18.95;3.92;;;7.00;86.20;;;;;;5044370;28;20032;-74
2022/01/14 12:19:21;;;;;;;14.95;4.13;;;7.00;86.10;;;;;;5049695;28;20507;-74
2022/01/14 12:21:48;;;;;;;13.85;3.80;;;7.00;86.20;;;;;;5046612;28;20116;-74
2022/01/14 12:24:30;;;;;;;17.95;3.70;;;7.00;85.90;;;;;;5028897;28;20045;-74
2022/01/14 12:27:07;;;;;;;21.77;4.38;;;7.10;86.10;;;;;;5057084;28;20643;-74
2022/01/14 12:29:35;;;;;;;16.50;4.15;;;7.00;86.20;;;;;;5070084;28;20465;-74
2022/01/14 12:32:08;;;;;;;14.93;4.57;;;7.00;86.20;;;;;;5033441;28;20036;-74
2022/01/14 12:34:45;;;;;;;16.67;3.65;;;7.10;86.10;;;;;;5061727;28;20036;-74
2022/01/14 12:37:21;;;;;;;21.13;3.90;;;7.10;86.10;;;;;;5063152;28;20044;-74
2022/01/14 12:39:51;;;;;;;23.50;4.60;;;7.10;86.10;;;;;;5053516;28;20033;-74
2022/01/14 12:42:21;;;;;;;15.10;3.67;;;7.10;86.20;;;;;;5043045;28;20043;-74
2022/01/14 12:44:51;;;;;;;23.10;4.85;;;7.10;86.00;;;;;;5063092;28;20041;-74
2022/01/14 12:47:26;;;;;;;13.77;3.95;;;7.10;86.50;;;;;;5030211;28;20699;-74
2022/01/14 12:49:52;;;;;;;20.70;4.20;;;7.10;86.10;;;;;;5036303;28;20077;-74
2022/01/14 12:52:29;;;;;;;27.88;4.88;;;7.10;86.50;;;;;;5051771;28;20049;-74
2022/01/14 12:54:55;;;;;;;21.75;4.45;;;7.10;86.20;;;;;;5059543;28;20135;-75
2022/01/14 12:57:24;;;;;;;24.92;3.90;;;7.20;86.30;;;;;;5042335;28;20190;-75
2022/01/14 12:59:52;;;;;;;19.38;4.15;;;7.20;86.20;;;;;;5049333;28;20044;-75
2022/01/14 13:02:23;;;;;;;14.18;4.18;;;7.10;85.90;;;;;;5065091;28;20071;-75
2022/01/14 13:05:19;;;;;;;22.10;4.47;;;7.10;86.10;;;;;;5057383;28;20049;-74
2022/01/14 13:07:46;;;;;;;24.30;5.00;;;7.10;86.30;;;;;;5044571;28;20040;-75
2022/01/14 13:10:13;;;;;;;19.95;4.47;;;7.10;86.00;;;;;;5037100;28;20037;-74
2022/01/14 13:12:41;;;;;;;22.23;4.35;;;7.10;86.40;;;;;;5052761;28;20106;-74
2022/01/14 13:15:20;;;;;;;21.75;4.25;;;7.10;86.20;;;;;;5057081;28;20082;-75